createdAt,value
2022-11-21T00:00:00.247Z,55.1
2022-11-21T00:01:00.442Z,55.1
2022-11-21T00:02:00.336Z,55.1
2022-11-21T00:03:01.245Z,55.1
2022-11-21T00:04:00.251Z,55.1
2022-11-21T00:05:00.256Z,65.3
2022-11-21T00:06:02.063Z,65.3
2022-11-21T00:07:00.282Z,65.3
2022-11-21T00:08:00.291Z,65.3
2022-11-21T00:09:00.301Z,65.3
2022-11-21T00:10:00.224Z,60.8
2022-11-21T00:11:00.412Z,60.8
2022-11-21T00:12:00.307Z,60.8
2022-11-21T00:13:00.225Z,60.8
2022-11-21T00:14:00.288Z,60.8
2022-11-21T00:15:00.322Z,68.1
2022-11-21T00:16:05.447Z,68.1
2022-11-21T00:17:00.233Z,68.1
2022-11-21T00:18:02.811Z,68.1
2022-11-21T00:19:00.226Z,68.1
2022-11-21T00:20:00.461Z,72.6
2022-11-21T00:21:11.006Z,72.6
2022-11-21T00:22:00.319Z,72.6
2022-11-21T00:23:00.231Z,72.6
2022-11-21T00:24:00.223Z,72.6
2022-11-21T00:25:00.342Z,68.9
2022-11-21T00:26:09.404Z,68.9
2022-11-21T00:27:00.273Z,68.9
2022-11-21T00:28:00.287Z,68.9
2022-11-21T00:29:00.214Z,68.9
2022-11-21T00:30:00.253Z,69.3
2022-11-21T00:31:00.812Z,69.3
2022-11-21T00:32:00.260Z,69.3
2022-11-21T00:33:00.252Z,69.3
2022-11-21T00:34:00.257Z,69.3
2022-11-21T00:35:00.391Z,70.1
2022-11-21T00:36:08.413Z,70.1
2022-11-21T00:37:00.215Z,70.1
2022-11-21T00:38:00.282Z,70.1
2022-11-21T00:39:00.219Z,70.1
2022-11-21T00:40:00.340Z,79.2
2022-11-21T00:41:00.233Z,79.2
2022-11-21T00:42:00.228Z,79.2
2022-11-21T00:43:00.258Z,79.2
2022-11-21T00:44:00.274Z,79.2
2022-11-21T00:45:00.308Z,88.0
2022-11-21T00:46:00.578Z,88.0
2022-11-21T00:47:00.264Z,88.0
2022-11-21T00:48:00.444Z,88.0
2022-11-21T00:49:00.285Z,88.0
2022-11-21T00:50:00.218Z,78.2
2022-11-21T00:51:01.080Z,78.2
2022-11-21T00:52:00.476Z,78.2
2022-11-21T00:53:00.412Z,78.2
2022-11-21T00:54:00.232Z,78.2
2022-11-21T00:55:00.265Z,75.7
2022-11-21T00:56:00.291Z,75.7
2022-11-21T00:57:00.353Z,75.7
2022-11-21T00:58:00.247Z,75.7
2022-11-21T00:59:00.293Z,75.7
2022-11-21T01:00:00.252Z,72.0
2022-11-21T01:01:03.399Z,72.0
2022-11-21T01:02:00.582Z,72.0
2022-11-21T01:03:00.377Z,72.0
2022-11-21T01:04:00.299Z,72.0
2022-11-21T01:05:00.263Z,69.6
2022-11-21T01:06:02.920Z,69.6
2022-11-21T01:07:00.330Z,69.6
2022-11-21T01:08:00.337Z,69.6
2022-11-21T01:09:00.230Z,69.6
2022-11-21T01:10:00.241Z,62.6
2022-11-21T01:11:02.462Z,62.6
2022-11-21T01:12:00.358Z,62.6
2022-11-21T01:13:00.273Z,62.6
2022-11-21T01:14:00.307Z,62.6
2022-11-21T01:15:00.271Z,63.6
2022-11-21T01:16:02.287Z,63.6
2022-11-21T01:17:00.235Z,63.6
2022-11-21T01:18:00.331Z,63.6
2022-11-21T01:19:00.306Z,63.6
2022-11-21T01:20:00.216Z,61.7
2022-11-21T01:21:03.243Z,61.7
2022-11-21T01:22:00.233Z,61.7
2022-11-21T01:23:00.372Z,61.7
2022-11-21T01:24:01.205Z,61.7
2022-11-21T01:25:00.222Z,63.8
2022-11-21T01:26:02.063Z,63.8
2022-11-21T01:27:00.211Z,63.8
2022-11-21T01:28:00.230Z,63.8
2022-11-21T01:29:00.337Z,63.8
2022-11-21T01:30:00.287Z,62.0
2022-11-21T01:31:06.416Z,62.0
2022-11-21T01:32:00.272Z,62.0
2022-11-21T01:33:00.269Z,62.0
2022-11-21T01:34:00.891Z,62.0
2022-11-21T01:35:00.235Z,58.9
2022-11-21T01:36:10.332Z,58.9
2022-11-21T01:37:00.240Z,58.9
2022-11-21T01:38:00.282Z,58.9
2022-11-21T01:39:03.311Z,58.9
2022-11-21T01:40:00.301Z,57.3
2022-11-21T01:41:00.459Z,57.3
2022-11-21T01:42:00.281Z,57.3
2022-11-21T01:43:08.831Z,57.3
2022-11-21T01:44:00.864Z,57.3
2022-11-21T01:45:00.310Z,61.5
2022-11-21T01:46:10.647Z,61.5
2022-11-21T01:47:00.237Z,61.5
2022-11-21T01:48:00.316Z,61.5
2022-11-21T01:49:07.672Z,61.5
2022-11-21T01:50:00.250Z,55.7
2022-11-21T01:51:06.701Z,55.7
2022-11-21T01:52:02.141Z,55.7
2022-11-21T01:53:00.380Z,55.7
2022-11-21T01:54:07.315Z,55.7
2022-11-21T01:55:04.685Z,59.2
2022-11-21T01:56:00.838Z,59.2
2022-11-21T01:57:07.251Z,59.2
2022-11-21T01:58:01.255Z,59.2
2022-11-21T01:59:02.041Z,59.2
2022-11-21T02:00:07.276Z,52.8
2022-11-21T02:01:02.076Z,52.8
2022-11-21T02:02:04.865Z,52.8
2022-11-21T02:03:06.703Z,52.8
2022-11-21T02:04:02.356Z,52.8
2022-11-21T02:05:01.330Z,53.3
2022-11-21T02:06:00.309Z,53.3
2022-11-21T02:07:03.537Z,53.3
2022-11-21T02:08:04.939Z,53.3
2022-11-21T02:09:00.551Z,53.3
2022-11-21T02:10:01.896Z,51.7
2022-11-21T02:11:13.140Z,51.7
2022-11-21T02:12:07.131Z,51.7
2022-11-21T02:13:01.224Z,51.7
2022-11-21T02:14:00.467Z,51.7
2022-11-21T02:15:00.786Z,52.9
2022-11-21T02:16:01.149Z,52.9
2022-11-21T02:17:04.186Z,52.9
2022-11-21T02:18:00.206Z,52.9
2022-11-21T02:19:00.556Z,52.9
2022-11-21T02:20:05.425Z,51.6
2022-11-21T02:21:09.058Z,51.6
2022-11-21T02:22:10.468Z,51.6
2022-11-21T02:23:20.186Z,51.6
2022-11-21T02:24:11.290Z,51.6
2022-11-21T02:25:10.949Z,51.7
2022-11-21T02:26:00.269Z,51.7
2022-11-21T02:27:00.825Z,51.7
2022-11-21T02:28:03.137Z,51.7
2022-11-21T02:29:00.486Z,51.7
2022-11-21T02:30:03.508Z,49.0
2022-11-21T02:31:00.256Z,49.0
2022-11-21T02:32:04.540Z,49.0
2022-11-21T02:33:00.249Z,49.0
2022-11-21T02:34:00.236Z,49.0
2022-11-21T02:35:00.549Z,51.6
2022-11-21T02:36:01.283Z,51.6
2022-11-21T02:37:01.302Z,51.6
2022-11-21T02:38:05.330Z,51.6
2022-11-21T02:39:01.101Z,51.6
2022-11-21T02:40:06.672Z,48.3
2022-11-21T02:41:14.629Z,48.3
2022-11-21T02:42:20.118Z,48.3
2022-11-21T02:43:07.624Z,48.3
2022-11-21T02:44:06.243Z,48.3
2022-11-21T02:45:17.424Z,50.1
2022-11-21T02:46:00.214Z,50.1
2022-11-21T02:47:00.240Z,50.1
2022-11-21T02:48:04.003Z,50.1
2022-11-21T02:49:05.277Z,50.1
2022-11-21T02:50:10.175Z,46.5
2022-11-21T02:51:00.313Z,46.5
2022-11-21T02:52:00.231Z,46.5
2022-11-21T02:53:01.167Z,46.5
2022-11-21T02:54:00.389Z,46.5
2022-11-21T02:55:00.230Z,46.6
2022-11-21T02:56:00.692Z,46.6
2022-11-21T02:57:00.329Z,46.6
2022-11-21T02:58:04.811Z,46.6
2022-11-21T02:59:00.328Z,46.6
2022-11-21T03:00:00.320Z,48.5
2022-11-21T03:01:00.290Z,48.5
2022-11-21T03:02:00.280Z,48.5
2022-11-21T03:03:00.490Z,48.5
2022-11-21T03:04:00.293Z,48.5
2022-11-21T03:05:00.980Z,50.2
2022-11-21T03:06:00.264Z,50.2
2022-11-21T03:07:00.346Z,50.2
2022-11-21T03:08:00.342Z,50.2
2022-11-21T03:09:00.296Z,50.2
2022-11-21T03:10:00.528Z,43.9
2022-11-21T03:11:00.212Z,43.9
2022-11-21T03:12:05.499Z,43.9
2022-11-21T03:13:00.431Z,43.9
2022-11-21T03:14:00.235Z,43.9
2022-11-21T03:15:00.314Z,47.0
2022-11-21T03:16:00.208Z,47.0
2022-11-21T03:17:00.270Z,47.0
2022-11-21T03:18:01.382Z,47.0
2022-11-21T03:19:00.516Z,47.0
2022-11-21T03:20:00.480Z,43.3
2022-11-21T03:21:00.242Z,43.3
2022-11-21T03:22:00.219Z,43.3
2022-11-21T03:23:00.914Z,43.3
2022-11-21T03:24:00.396Z,43.3
2022-11-21T03:25:00.425Z,44.4
2022-11-21T03:26:00.252Z,44.4
2022-11-21T03:27:00.306Z,44.4
2022-11-21T03:28:00.348Z,44.4
2022-11-21T03:29:00.225Z,44.4
2022-11-21T03:30:00.285Z,46.4
2022-11-21T03:31:00.245Z,46.4
2022-11-21T03:32:00.286Z,46.4
2022-11-21T03:33:00.274Z,46.4
2022-11-21T03:34:00.272Z,46.4
2022-11-21T03:35:00.272Z,43.3
2022-11-21T03:36:00.448Z,43.3
2022-11-21T03:37:00.358Z,43.3
2022-11-21T03:38:00.220Z,43.3
2022-11-21T03:39:00.294Z,43.3
2022-11-21T03:40:00.329Z,44.0
2022-11-21T03:41:04.600Z,44.0
2022-11-21T03:42:00.275Z,44.0
2022-11-21T03:43:04.385Z,44.0
2022-11-21T03:44:04.281Z,46.2
2022-11-21T03:45:00.299Z,46.2
2022-11-21T03:46:00.244Z,46.2
2022-11-21T03:47:00.224Z,46.2
2022-11-21T03:48:00.343Z,46.2
2022-11-21T03:49:00.300Z,44.7
2022-11-21T03:50:00.275Z,44.7
2022-11-21T03:51:00.237Z,44.7
2022-11-21T03:52:00.248Z,44.7
2022-11-21T03:53:00.259Z,44.7
2022-11-21T03:54:00.880Z,46.6
2022-11-21T03:55:00.221Z,46.6
2022-11-21T03:56:00.221Z,46.6
2022-11-21T03:57:00.325Z,46.6
2022-11-21T03:58:00.235Z,46.6
2022-11-21T03:59:00.755Z,43.3
2022-11-21T04:00:00.264Z,43.3
2022-11-21T04:01:00.404Z,43.3
2022-11-21T04:02:00.347Z,43.3
2022-11-21T04:03:00.247Z,43.3
2022-11-21T04:04:00.246Z,46.6
2022-11-21T04:05:00.223Z,46.6
2022-11-21T04:06:00.533Z,46.6
2022-11-21T04:07:00.364Z,46.6
2022-11-21T04:08:00.238Z,46.6
2022-11-21T04:09:00.312Z,46.9
2022-11-21T04:10:00.233Z,46.9
2022-11-21T04:11:00.462Z,46.9
2022-11-21T04:12:05.019Z,46.9
2022-11-21T04:13:00.295Z,46.9
2022-11-21T04:14:00.336Z,45.0
2022-11-21T04:15:00.382Z,45.0
2022-11-21T04:16:00.448Z,45.0
2022-11-21T04:17:00.451Z,45.0
2022-11-21T04:18:00.211Z,45.0
2022-11-21T04:19:00.309Z,43.5
2022-11-21T04:20:00.258Z,43.5
2022-11-21T04:21:04.522Z,43.5
2022-11-21T04:22:00.251Z,43.5
2022-11-21T04:23:00.242Z,43.5
2022-11-21T04:24:00.204Z,45.1
2022-11-21T04:25:00.239Z,45.1
2022-11-21T04:26:00.621Z,45.1
2022-11-21T04:27:00.241Z,45.1
2022-11-21T04:28:01.873Z,45.1
2022-11-21T04:29:00.375Z,46.1
2022-11-21T04:30:00.327Z,46.1
2022-11-21T04:31:10.700Z,46.1
2022-11-21T04:32:00.251Z,46.1
2022-11-21T04:33:00.245Z,46.1
2022-11-21T04:34:00.252Z,49.3
2022-11-21T04:35:00.289Z,49.3
2022-11-21T04:36:00.609Z,49.3
2022-11-21T04:37:00.329Z,49.3
2022-11-21T04:38:00.230Z,49.3
2022-11-21T04:39:00.327Z,46.7
2022-11-21T04:40:00.406Z,46.7
2022-11-21T04:41:00.240Z,46.7
2022-11-21T04:42:00.267Z,46.7
2022-11-21T04:43:00.690Z,46.7
2022-11-21T04:44:00.255Z,47.2
2022-11-21T04:45:00.308Z,47.2
2022-11-21T04:46:00.221Z,47.2
2022-11-21T04:47:05.025Z,47.2
2022-11-21T04:48:00.330Z,47.2
2022-11-21T04:49:00.320Z,47.4
2022-11-21T04:50:00.267Z,47.4
2022-11-21T04:51:00.239Z,47.4
2022-11-21T04:52:00.237Z,47.4
2022-11-21T04:53:00.265Z,47.4
2022-11-21T04:54:00.264Z,48.4
2022-11-21T04:55:00.839Z,48.4
2022-11-21T04:56:03.274Z,48.4
2022-11-21T04:57:00.423Z,48.4
2022-11-21T04:58:00.345Z,48.4
2022-11-21T04:59:00.238Z,48.0
2022-11-21T05:00:00.374Z,48.0
2022-11-21T05:01:08.379Z,48.0
2022-11-21T05:02:02.319Z,48.0
2022-11-21T05:03:01.063Z,48.0
2022-11-21T05:04:00.350Z,47.6
2022-11-21T05:05:00.327Z,47.6
2022-11-21T05:06:00.417Z,47.6
2022-11-21T05:07:00.296Z,47.6
2022-11-21T05:08:00.285Z,47.6
2022-11-21T05:09:00.226Z,46.4
2022-11-21T05:10:00.350Z,46.4
2022-11-21T05:11:00.351Z,46.4
2022-11-21T05:12:00.364Z,46.4
2022-11-21T05:13:00.227Z,46.4
2022-11-21T05:14:00.249Z,43.2
2022-11-21T05:15:00.415Z,43.2
2022-11-21T05:16:00.279Z,43.2
2022-11-21T05:17:00.278Z,43.2
2022-11-21T05:18:00.222Z,43.2
2022-11-21T05:19:00.277Z,47.5
2022-11-21T05:20:00.734Z,47.5
2022-11-21T05:21:00.904Z,47.5
2022-11-21T05:22:00.292Z,47.5
2022-11-21T05:23:00.260Z,47.5
2022-11-21T05:24:00.293Z,47.2
2022-11-21T05:25:00.240Z,47.2
2022-11-21T05:26:00.419Z,47.2
2022-11-21T05:27:00.379Z,47.2
2022-11-21T05:28:00.292Z,47.2
2022-11-21T05:29:00.490Z,43.7
2022-11-21T05:30:00.266Z,43.7
2022-11-21T05:31:00.271Z,43.7
2022-11-21T05:32:00.233Z,43.7
2022-11-21T05:33:00.362Z,43.7
2022-11-21T05:34:00.228Z,45.6
2022-11-21T05:35:00.271Z,45.6
2022-11-21T05:36:00.356Z,45.6
2022-11-21T05:37:00.426Z,45.6
2022-11-21T05:38:00.212Z,45.6
2022-11-21T05:39:00.224Z,47.0
2022-11-21T05:40:00.357Z,47.0
2022-11-21T05:41:00.261Z,47.0
2022-11-21T05:42:03.213Z,47.0
2022-11-21T05:43:00.325Z,47.0
2022-11-21T05:44:00.270Z,42.9
2022-11-21T05:45:00.291Z,42.9
2022-11-21T05:46:00.319Z,42.9
2022-11-21T05:47:00.221Z,42.9
2022-11-21T05:48:00.482Z,42.9
2022-11-21T05:49:00.206Z,41.3
2022-11-21T05:50:00.360Z,41.3
2022-11-21T05:51:00.242Z,41.3
2022-11-21T05:52:00.273Z,41.3
2022-11-21T05:53:02.154Z,41.3
2022-11-21T05:54:00.420Z,43.4
2022-11-21T05:55:00.238Z,43.4
2022-11-21T05:56:06.188Z,43.4
2022-11-21T05:57:00.256Z,43.4
2022-11-21T05:58:00.223Z,43.4
2022-11-21T05:59:00.232Z,43.9
2022-11-21T06:00:00.230Z,43.9
2022-11-21T06:01:01.056Z,43.9
2022-11-21T06:02:00.228Z,43.9
2022-11-21T06:03:00.310Z,43.9
2022-11-21T06:04:00.426Z,46.7
2022-11-21T06:05:00.230Z,46.7
2022-11-21T06:06:08.729Z,46.7
2022-11-21T06:07:00.392Z,46.7
2022-11-21T06:08:00.296Z,46.7
2022-11-21T06:09:00.593Z,40.0
2022-11-21T06:10:00.240Z,40.0
2022-11-21T06:11:01.012Z,40.0
2022-11-21T06:12:00.247Z,40.0
2022-11-21T06:13:00.693Z,40.0
2022-11-21T06:14:00.220Z,44.3
2022-11-21T06:15:00.310Z,44.3
2022-11-21T06:16:02.725Z,44.3
2022-11-21T06:17:00.216Z,44.3
2022-11-21T06:18:00.266Z,44.3
2022-11-21T06:19:00.263Z,43.0
2022-11-21T06:20:00.309Z,43.0
2022-11-21T06:21:01.622Z,43.0
2022-11-21T06:22:00.225Z,43.0
2022-11-21T06:23:00.248Z,43.0
2022-11-21T06:24:00.247Z,43.7
2022-11-21T06:25:00.245Z,43.7
2022-11-21T06:26:03.907Z,43.7
2022-11-21T06:27:00.232Z,43.7
2022-11-21T06:28:00.239Z,43.7
2022-11-21T06:29:00.240Z,42.2
2022-11-21T06:30:00.274Z,42.2
2022-11-21T06:31:02.435Z,42.2
2022-11-21T06:32:00.227Z,42.2
2022-11-21T06:33:03.436Z,42.2
2022-11-21T06:34:00.277Z,41.9
2022-11-21T06:35:00.289Z,41.9
2022-11-21T06:36:02.446Z,41.9
2022-11-21T06:37:00.230Z,41.9
2022-11-21T06:38:00.220Z,41.9
2022-11-21T06:39:00.294Z,38.8
2022-11-21T06:40:00.399Z,38.8
2022-11-21T06:41:05.106Z,38.8
2022-11-21T06:42:00.806Z,38.8
2022-11-21T06:43:00.379Z,38.8
2022-11-21T06:44:00.266Z,44.2
2022-11-21T06:45:00.253Z,44.2
2022-11-21T06:46:00.511Z,44.2
2022-11-21T06:47:00.273Z,44.2
2022-11-21T06:48:01.976Z,44.2
2022-11-21T06:49:00.278Z,45.1
2022-11-21T06:50:00.224Z,45.1
2022-11-21T06:51:04.952Z,45.1
2022-11-21T06:52:00.278Z,45.1
2022-11-21T06:53:00.218Z,45.1
2022-11-21T06:54:00.343Z,42.4
2022-11-21T06:55:00.546Z,42.4
2022-11-21T06:56:01.149Z,42.4
2022-11-21T06:57:00.304Z,42.4
2022-11-21T06:58:00.273Z,42.4
2022-11-21T06:59:00.305Z,42.1
2022-11-21T07:00:00.500Z,42.1
2022-11-21T07:01:05.409Z,42.1
2022-11-21T07:02:00.286Z,42.1
2022-11-21T07:03:03.142Z,42.1
2022-11-21T07:04:00.222Z,43.4
2022-11-21T07:05:00.274Z,43.4
2022-11-21T07:06:00.765Z,43.4
2022-11-21T07:07:00.377Z,43.4
2022-11-21T07:08:01.574Z,43.4
2022-11-21T07:09:31.146Z,43.6
2022-11-21T07:10:00.249Z,43.6
2022-11-21T07:11:24.040Z,43.6
2022-11-21T07:12:00.615Z,43.6
2022-11-21T07:13:00.460Z,43.6
2022-11-21T07:14:02.831Z,38.1
2022-11-21T07:15:00.352Z,38.1
2022-11-21T07:16:02.288Z,38.1
2022-11-21T07:17:00.232Z,38.1
2022-11-21T07:18:00.301Z,38.1
2022-11-21T07:19:00.361Z,43.3
2022-11-21T07:20:00.331Z,43.3
2022-11-21T07:21:02.595Z,43.3
2022-11-21T07:22:00.228Z,43.3
2022-11-21T07:23:00.288Z,43.3
2022-11-21T07:24:00.320Z,35.5
2022-11-21T07:25:00.294Z,35.5
2022-11-21T07:26:01.622Z,35.5
2022-11-21T07:27:01.119Z,35.5
2022-11-21T07:28:02.497Z,35.5
2022-11-21T07:29:00.293Z,37.2
2022-11-21T07:30:00.286Z,37.2
2022-11-21T07:31:01.120Z,37.2
2022-11-21T07:32:00.243Z,37.2
2022-11-21T07:33:02.748Z,37.2
2022-11-21T07:34:00.243Z,36.5
2022-11-21T07:35:00.269Z,36.5
2022-11-21T07:36:00.298Z,36.5
2022-11-21T07:37:00.234Z,36.5
2022-11-21T07:38:01.129Z,36.5
2022-11-21T07:39:00.316Z,39.4
2022-11-21T07:40:00.342Z,39.4
2022-11-21T07:41:00.398Z,39.4
2022-11-21T07:42:00.264Z,39.4
2022-11-21T07:43:09.445Z,39.4
2022-11-21T07:44:00.335Z,38.2
2022-11-21T07:45:00.331Z,38.2
2022-11-21T07:46:00.204Z,38.2
2022-11-21T07:47:00.245Z,38.2
2022-11-21T07:48:01.955Z,38.2
2022-11-21T07:49:03.309Z,37.9
2022-11-21T07:50:00.375Z,37.9
2022-11-21T07:51:03.218Z,37.9
2022-11-21T07:52:00.285Z,37.9
2022-11-21T07:53:03.396Z,37.9
2022-11-21T07:54:00.228Z,38.2
2022-11-21T07:55:00.411Z,38.2
2022-11-21T07:56:00.259Z,38.2
2022-11-21T07:57:00.218Z,38.2
2022-11-21T07:58:02.620Z,38.2
2022-11-21T07:59:00.228Z,36.4
2022-11-21T08:00:00.255Z,36.4
2022-11-21T08:01:04.867Z,36.4
2022-11-21T08:02:00.291Z,36.4
2022-11-21T08:03:00.581Z,36.4
2022-11-21T08:04:00.230Z,38.0
2022-11-21T08:05:00.271Z,38.0
2022-11-21T08:06:01.097Z,38.0
2022-11-21T08:07:00.277Z,38.0
2022-11-21T08:08:00.204Z,38.0
2022-11-21T08:09:00.232Z,37.0
2022-11-21T08:10:00.270Z,37.0
2022-11-21T08:11:03.936Z,37.0
2022-11-21T08:12:00.226Z,37.0
2022-11-21T08:13:00.225Z,37.0
2022-11-21T08:14:00.198Z,34.6
2022-11-21T08:15:00.274Z,34.6
2022-11-21T08:16:03.095Z,34.6
2022-11-21T08:17:00.230Z,34.6
2022-11-21T08:18:11.209Z,34.6
2022-11-21T08:19:00.662Z,34.6
2022-11-21T08:20:00.271Z,34.6
2022-11-21T08:21:01.607Z,34.6
2022-11-21T08:22:00.686Z,34.6
2022-11-21T08:23:00.247Z,34.6
2022-11-21T08:24:00.329Z,32.0
2022-11-21T08:25:00.223Z,32.0
2022-11-21T08:26:00.213Z,32.0
2022-11-21T08:27:00.281Z,32.0
2022-11-21T08:28:00.515Z,31.7
2022-11-21T08:29:00.386Z,31.7
2022-11-21T08:30:00.372Z,31.7
2022-11-21T08:31:02.552Z,31.7
2022-11-21T08:32:00.335Z,31.7
2022-11-21T08:33:01.071Z,31.7
2022-11-21T08:34:00.262Z,31.7
2022-11-21T08:35:00.560Z,31.7
2022-11-21T08:36:04.678Z,31.7
2022-11-21T08:37:00.210Z,31.7
2022-11-21T08:38:00.754Z,30.7
2022-11-21T08:39:00.590Z,30.7
2022-11-21T08:40:00.516Z,30.7
2022-11-21T08:41:00.284Z,30.7
2022-11-21T08:42:00.274Z,30.7
2022-11-21T08:43:04.571Z,29.5
2022-11-21T08:44:00.241Z,29.5
2022-11-21T08:45:00.288Z,29.5
2022-11-21T08:46:00.198Z,29.5
2022-11-21T08:47:00.866Z,29.5
2022-11-21T08:48:00.868Z,28.1
2022-11-21T08:49:00.236Z,28.1
2022-11-21T08:50:04.301Z,28.1
2022-11-21T08:51:00.242Z,28.1
2022-11-21T08:52:00.384Z,28.1
2022-11-21T08:53:00.722Z,26.7
2022-11-21T08:54:00.673Z,26.7
2022-11-21T08:55:00.221Z,26.7
2022-11-21T08:56:03.915Z,26.7
2022-11-21T08:57:00.274Z,26.7
2022-11-21T08:58:00.227Z,30.1
2022-11-21T08:59:00.217Z,30.1
2022-11-21T09:00:00.241Z,30.1
2022-11-21T09:01:00.259Z,30.1
2022-11-21T09:02:00.797Z,30.1
2022-11-21T09:03:03.172Z,23.1
2022-11-21T09:04:00.196Z,23.1
2022-11-21T09:05:00.573Z,23.1
2022-11-21T09:06:00.358Z,23.1
2022-11-21T09:07:00.277Z,23.1
2022-11-21T09:08:00.367Z,23.2
2022-11-21T09:09:00.465Z,23.2
2022-11-21T09:10:00.307Z,23.2
2022-11-21T09:11:08.889Z,23.2
2022-11-21T09:12:00.575Z,23.2
2022-11-21T09:13:00.210Z,23.0
2022-11-21T09:14:00.253Z,23.0
2022-11-21T09:15:00.239Z,23.0
2022-11-21T09:16:01.266Z,23.0
2022-11-21T09:17:02.256Z,23.0
2022-11-21T09:18:00.586Z,22.4
2022-11-21T09:19:00.200Z,22.4
2022-11-21T09:20:00.365Z,22.4
2022-11-21T09:21:00.253Z,22.4
2022-11-21T09:22:00.213Z,22.4
2022-11-21T09:23:09.615Z,19.9
2022-11-21T09:24:00.212Z,19.9
2022-11-21T09:25:00.340Z,19.9
2022-11-21T09:26:00.707Z,19.9
2022-11-21T09:27:00.243Z,19.9
2022-11-21T09:28:02.535Z,21.4
2022-11-21T09:29:00.214Z,21.4
2022-11-21T09:30:00.236Z,21.4
2022-11-21T09:31:01.414Z,21.4
2022-11-21T09:32:00.227Z,21.4
2022-11-21T09:33:01.521Z,19.5
2022-11-21T09:34:00.216Z,19.5
2022-11-21T09:35:00.204Z,19.5
2022-11-21T09:36:00.413Z,19.5
2022-11-21T09:37:00.255Z,19.5
2022-11-21T09:38:00.413Z,19.8
2022-11-21T09:39:00.446Z,19.8
2022-11-21T09:40:00.308Z,19.8
2022-11-21T09:41:16.084Z,19.8
2022-11-21T09:42:06.984Z,19.8
2022-11-21T09:43:20.131Z,20.1
2022-11-21T09:44:08.408Z,20.1
2022-11-21T09:45:04.864Z,20.1
2022-11-21T09:46:08.267Z,20.1
2022-11-21T09:47:15.939Z,20.1
2022-11-21T09:48:07.387Z,20.3
2022-11-21T09:49:06.498Z,20.3
2022-11-21T09:50:05.036Z,20.3
2022-11-21T09:51:04.874Z,20.3
2022-11-21T09:52:01.019Z,20.3
2022-11-21T09:53:15.661Z,22.6
2022-11-21T09:54:06.715Z,22.6
2022-11-21T09:55:05.186Z,22.6
2022-11-21T09:56:05.204Z,22.6
2022-11-21T09:57:00.250Z,22.6
2022-11-21T09:58:03.887Z,21.3
2022-11-21T09:59:11.369Z,21.3
2022-11-21T10:00:03.549Z,21.3
2022-11-21T10:01:00.558Z,21.3
2022-11-21T10:02:01.136Z,21.3
2022-11-21T10:03:00.343Z,21.2
2022-11-21T10:04:01.738Z,21.2
2022-11-21T10:05:00.255Z,21.2
2022-11-21T10:06:11.108Z,21.2
2022-11-21T10:07:05.099Z,21.2
2022-11-21T10:08:07.830Z,21.1
2022-11-21T10:09:11.119Z,21.1
2022-11-21T10:10:16.831Z,21.1
2022-11-21T10:11:19.707Z,21.1
2022-11-21T10:12:20.114Z,21.1
2022-11-21T10:13:12.783Z,20.5
2022-11-21T10:14:16.802Z,20.5
2022-11-21T10:15:17.718Z,20.5
2022-11-21T10:16:07.994Z,20.5
2022-11-21T10:17:11.179Z,20.5
2022-11-21T10:18:13.431Z,20.0
2022-11-21T10:19:11.535Z,20.0
2022-11-21T10:20:20.138Z,20.0
2022-11-21T10:21:10.157Z,20.0
2022-11-21T10:22:17.128Z,20.0
2022-11-21T10:23:20.127Z,20.7
2022-11-21T10:24:07.466Z,20.7
2022-11-21T10:25:12.465Z,20.7
2022-11-21T10:26:10.207Z,20.7
2022-11-21T10:27:09.974Z,20.7
2022-11-21T10:28:13.005Z,17.3
2022-11-21T10:29:08.439Z,17.3
2022-11-21T10:30:04.086Z,17.3
2022-11-21T10:31:03.367Z,17.3
2022-11-21T10:32:08.014Z,17.3
2022-11-21T10:33:03.035Z,20.2
2022-11-21T10:34:02.397Z,20.2
2022-11-21T10:35:14.763Z,20.2
2022-11-21T10:36:06.539Z,20.2
2022-11-21T10:37:12.088Z,20.2
2022-11-21T10:38:01.998Z,17.0
2022-11-21T10:39:09.175Z,17.0
2022-11-21T10:40:19.059Z,17.0
2022-11-21T10:41:05.127Z,17.0
2022-11-21T10:42:24.240Z,17.0
2022-11-21T10:43:05.239Z,23.3
2022-11-21T10:44:14.992Z,23.3
2022-11-21T10:45:01.873Z,23.3
2022-11-21T10:46:00.220Z,23.3
2022-11-21T10:47:01.080Z,23.3
2022-11-21T10:48:05.192Z,17.9
2022-11-21T10:49:02.332Z,17.9
2022-11-21T10:50:20.125Z,17.9
2022-11-21T10:51:20.112Z,17.9
2022-11-21T10:52:12.806Z,17.9
2022-11-21T10:53:07.700Z,16.9
2022-11-21T10:54:07.599Z,16.9
2022-11-21T10:55:01.224Z,16.9
2022-11-21T10:56:05.489Z,16.9
2022-11-21T10:57:00.203Z,16.9
2022-11-21T10:58:17.482Z,14.6
2022-11-21T10:59:11.930Z,14.6
2022-11-21T11:00:11.568Z,14.6
2022-11-21T11:01:00.391Z,14.6
2022-11-21T11:02:11.739Z,14.6
2022-11-21T11:03:06.248Z,15.1
2022-11-21T11:04:43.954Z,15.1
2022-11-21T11:05:20.135Z,15.1
2022-11-21T11:06:00.213Z,15.1
2022-11-21T11:07:20.203Z,15.1
2022-11-21T11:08:04.332Z,14.6
2022-11-21T11:09:00.349Z,14.6
2022-11-21T11:10:14.760Z,14.6
2022-11-21T11:11:03.874Z,14.6
2022-11-21T11:12:20.112Z,14.6
2022-11-21T11:13:02.056Z,16.2
2022-11-21T11:14:03.908Z,16.2
2022-11-21T11:15:00.294Z,16.2
2022-11-21T11:16:04.535Z,16.2
2022-11-21T11:17:00.289Z,16.2
2022-11-21T11:18:07.637Z,16.5
2022-11-21T11:19:04.646Z,16.5
2022-11-21T11:20:05.008Z,16.5
2022-11-21T11:21:12.260Z,16.5
2022-11-21T11:22:00.302Z,16.5
2022-11-21T11:23:20.126Z,14.1
2022-11-21T11:24:10.160Z,14.1
2022-11-21T11:25:03.071Z,14.1
2022-11-21T11:26:00.227Z,14.1
2022-11-21T11:27:01.689Z,14.1
2022-11-21T11:28:06.099Z,17.3
2022-11-21T11:29:13.453Z,17.3
2022-11-21T11:30:06.434Z,17.3
2022-11-21T11:31:00.524Z,17.3
2022-11-21T11:32:15.278Z,17.3
2022-11-21T11:33:00.246Z,12.6
2022-11-21T11:34:00.237Z,12.6
2022-11-21T11:35:17.389Z,12.6
2022-11-21T11:36:12.230Z,12.6
2022-11-21T11:37:11.161Z,12.6
2022-11-21T11:38:00.754Z,12.6
2022-11-21T11:39:08.508Z,12.6
2022-11-21T11:40:15.892Z,12.6
2022-11-21T11:41:08.500Z,12.6
2022-11-21T11:42:19.689Z,12.6
2022-11-21T11:43:07.184Z,13.7
2022-11-21T11:44:14.717Z,13.7
2022-11-21T11:45:02.259Z,13.7
2022-11-21T11:46:20.118Z,13.7
2022-11-21T11:47:09.348Z,13.7
2022-11-21T11:48:04.688Z,11.7
2022-11-21T11:49:21.641Z,11.7
2022-11-21T11:50:09.473Z,11.7
2022-11-21T11:51:07.877Z,11.7
2022-11-21T11:52:03.886Z,11.7
2022-11-21T11:53:04.748Z,13.6
2022-11-21T11:54:05.714Z,13.6
2022-11-21T11:55:06.918Z,13.6
2022-11-21T11:56:06.257Z,13.6
2022-11-21T11:57:03.145Z,13.6
2022-11-21T11:58:05.816Z,11.6
2022-11-21T11:59:20.160Z,11.6
2022-11-21T12:00:16.655Z,11.6
2022-11-21T12:01:09.619Z,11.6
2022-11-21T12:02:11.491Z,11.6
2022-11-21T12:03:12.609Z,14.5
2022-11-21T12:04:09.304Z,14.5
2022-11-21T12:05:14.096Z,14.5
2022-11-21T12:06:09.610Z,14.5
2022-11-21T12:08:06.276Z,14.5
2022-11-21T12:08:40.786Z,10.6
2022-11-21T12:09:12.460Z,10.6
2022-11-21T12:10:10.732Z,10.6
2022-11-21T12:11:12.690Z,10.6
2022-11-21T12:12:17.496Z,10.6
2022-11-21T12:13:08.527Z,10.4
2022-11-21T12:14:10.328Z,10.4
2022-11-21T12:15:17.750Z,10.4
2022-11-21T12:16:11.832Z,10.4
2022-11-21T12:17:04.696Z,10.4
2022-11-21T12:18:07.892Z,12.0
2022-11-21T12:19:07.246Z,12.0
2022-11-21T12:20:07.736Z,12.0
2022-11-21T12:21:11.219Z,12.0
2022-11-21T12:22:00.308Z,12.0
2022-11-21T12:23:01.407Z,12.7
2022-11-21T12:24:02.458Z,12.7
2022-11-21T12:25:00.355Z,12.7
2022-11-21T12:26:20.178Z,12.7
2022-11-21T12:27:15.353Z,12.7
2022-11-21T12:28:05.467Z,14.0
2022-11-21T12:29:09.007Z,14.0
2022-11-21T12:30:07.885Z,14.0
2022-11-21T12:31:05.126Z,14.0
2022-11-21T12:32:20.173Z,18.5
2022-11-21T12:33:08.898Z,18.5
2022-11-21T12:34:20.139Z,18.5
2022-11-21T12:35:20.181Z,18.5
2022-11-21T12:36:18.017Z,18.5
2022-11-21T12:37:17.093Z,16.7
2022-11-21T12:38:20.213Z,16.7
2022-11-21T12:39:05.902Z,16.7
2022-11-21T12:40:13.561Z,16.7
2022-11-21T12:41:17.061Z,16.7
2022-11-21T12:42:16.078Z,19.2
2022-11-21T12:43:10.171Z,19.2
2022-11-21T12:44:17.538Z,19.2
2022-11-21T12:45:02.251Z,19.2
2022-11-21T12:46:19.591Z,19.2
2022-11-21T12:47:20.137Z,22.5
2022-11-21T12:48:19.250Z,22.5
2022-11-21T12:49:11.104Z,22.5
2022-11-21T12:50:17.072Z,22.5
2022-11-21T12:51:20.155Z,22.5
2022-11-21T12:52:12.731Z,22.5
2022-11-21T12:53:10.395Z,21.8
2022-11-21T12:54:14.619Z,21.8
2022-11-21T12:55:08.665Z,21.8
2022-11-21T12:56:11.832Z,21.8
2022-11-21T12:57:12.153Z,21.8
2022-11-21T12:58:15.169Z,34.7
2022-11-21T12:59:01.886Z,34.7
2022-11-21T13:00:11.727Z,34.7
2022-11-21T13:01:16.806Z,34.7
2022-11-21T13:02:20.121Z,27.6
2022-11-21T13:03:20.151Z,27.6
2022-11-21T13:04:03.976Z,27.6
2022-11-21T13:05:03.659Z,27.6
2022-11-21T13:06:02.895Z,27.6
2022-11-21T13:07:01.937Z,27.6
2022-11-21T13:08:06.572Z,24.8
2022-11-21T13:09:06.644Z,24.8
2022-11-21T13:10:02.869Z,24.8
2022-11-21T13:11:20.100Z,24.8
2022-11-21T13:12:05.049Z,24.8
2022-11-21T13:13:20.103Z,24.5
2022-11-21T13:14:10.170Z,24.5
2022-11-21T13:15:12.601Z,24.5
2022-11-21T13:16:07.570Z,24.5
2022-11-21T13:17:05.821Z,24.5
2022-11-21T13:18:14.562Z,23.7